sensor_id;sensor_type;location;lat;lon;timestamp;temperature;humidity
5508;DHT22;2776;51.046;6.772;2022-12-10T00:00:53;-0.40;99.90
5508;DHT22;2776;51.046;6.772;2022-12-10T00:03:21;-0.40;99.90
5508;DHT22;2776;51.046;6.772;2022-12-10T00:05:48;-0.40;99.90
5508;DHT22;2776;51.046;6.772;2022-12-10T00:08:15;-0.40;99.90
5508;DHT22;2776;51.046;6.772;2022-12-10T00:10:41;-0.40;99.90
5508;DHT22;2776;51.046;6.772;2022-12-10T00:13:08;-0.40;99.90
5508;DHT22;2776;51.046;6.772;2022-12-10T00:15:35;-0.50;99.90
5508;DHT22;2776;51.046;6.772;2022-12-10T00:18:02;-0.60;99.90
5508;DHT22;2776;51.046;6.772;2022-12-10T00:20:30;-0.70;99.90
5508;DHT22;2776;51.046;6.772;2022-12-10T00:22:57;-0.80;99.90
5508;DHT22;2776;51.046;6.772;2022-12-10T00:25:23;-0.80;99.90
5508;DHT22;2776;51.046;6.772;2022-12-10T00:27:50;-0.80;99.90
5508;DHT22;2776;51.046;6.772;2022-12-10T00:30:17;-0.80;99.90
5508;DHT22;2776;51.046;6.772;2022-12-10T00:32:44;-0.80;99.90
5508;DHT22;2776;51.046;6.772;2022-12-10T00:35:10;-0.80;99.90
5508;DHT22;2776;51.046;6.772;2022-12-10T00:37:38;-0.90;99.90
5508;DHT22;2776;51.046;6.772;2022-12-10T00:40:06;-0.90;99.90
5508;DHT22;2776;51.046;6.772;2022-12-10T00:42:33;-0.90;99.90
5508;DHT22;2776;51.046;6.772;2022-12-10T00:45:00;-1.00;99.90
5508;DHT22;2776;51.046;6.772;2022-12-10T00:47:27;-1.00;99.90
5508;DHT22;2776;51.046;6.772;2022-12-10T00:49:54;-1.00;99.90
5508;DHT22;2776;51.046;6.772;2022-12-10T00:52:20;-0.90;99.90
5508;DHT22;2776;51.046;6.772;2022-12-10T00:54:48;-0.90;99.90
5508;DHT22;2776;51.046;6.772;2022-12-10T00:57:15;-1.00;99.90
5508;DHT22;2776;51.046;6.772;2022-12-10T00:59:42;-1.00;99.90
5508;DHT22;2776;51.046;6.772;2022-12-10T01:02:09;-1.00;99.90
5508;DHT22;2776;51.046;6.772;2022-12-10T01:04:36;-1.00;99.90
5508;DHT22;2776;51.046;6.772;2022-12-10T01:07:02;-1.00;99.90
5508;DHT22;2776;51.046;6.772;2022-12-10T01:09:30;-1.10;99.90
5508;DHT22;2776;51.046;6.772;2022-12-10T01:12:01;-1.10;99.90
5508;DHT22;2776;51.046;6.772;2022-12-10T01:14:30;-1.10;99.90
5508;DHT22;2776;51.046;6.772;2022-12-10T01:16:58;-1.20;99.90
5508;DHT22;2776;51.046;6.772;2022-12-10T01:19:28;-1.20;99.90
5508;DHT22;2776;51.046;6.772;2022-12-10T01:21:56;-1.30;99.90
5508;DHT22;2776;51.046;6.772;2022-12-10T01:24:24;-1.20;99.90
5508;DHT22;2776;51.046;6.772;2022-12-10T01:26:51;-1.20;99.90
5508;DHT22;2776;51.046;6.772;2022-12-10T01:29:21;-1.10;99.90
5508;DHT22;2776;51.046;6.772;2022-12-10T01:31:51;-1.10;99.90
5508;DHT22;2776;51.046;6.772;2022-12-10T01:34:18;-1.10;99.90
5508;DHT22;2776;51.046;6.772;2022-12-10T01:36:48;-1.10;99.90
5508;DHT22;2776;51.046;6.772;2022-12-10T01:39:16;-1.10;99.90
5508;DHT22;2776;51.046;6.772;2022-12-10T01:41:46;-1.10;99.90
5508;DHT22;2776;51.046;6.772;2022-12-10T01:47:14;-1.00;99.90
5508;DHT22;2776;51.046;6.772;2022-12-10T01:49:41;-1.10;99.90
5508;DHT22;2776;51.046;6.772;2022-12-10T01:52:11;-1.10;99.90
5508;DHT22;2776;51.046;6.772;2022-12-10T01:54:39;-1.20;99.90
5508;DHT22;2776;51.046;6.772;2022-12-10T01:57:09;-1.20;99.90
5508;DHT22;2776;51.046;6.772;2022-12-10T01:59:37;-1.30;99.90
5508;DHT22;2776;51.046;6.772;2022-12-10T02:02:10;-1.40;99.90
5508;DHT22;2776;51.046;6.772;2022-12-10T02:04:45;-1.40;99.90
5508;DHT22;2776;51.046;6.772;2022-12-10T02:07:16;-1.40;99.90
5508;DHT22;2776;51.046;6.772;2022-12-10T02:09:50;-1.40;99.90
5508;DHT22;2776;51.046;6.772;2022-12-10T02:12:23;-1.40;99.90
5508;DHT22;2776;51.046;6.772;2022-12-10T02:14:55;-1.40;99.90
5508;DHT22;2776;51.046;6.772;2022-12-10T02:17:25;-1.40;99.90
5508;DHT22;2776;51.046;6.772;2022-12-10T02:19:59;-1.40;99.90
5508;DHT22;2776;51.046;6.772;2022-12-10T02:22:31;-1.50;99.90
5508;DHT22;2776;51.046;6.772;2022-12-10T02:25:00;-1.50;99.90
5508;DHT22;2776;51.046;6.772;2022-12-10T02:27:33;-1.50;99.90
5508;DHT22;2776;51.046;6.772;2022-12-10T02:30:03;-1.50;99.90
5508;DHT22;2776;51.046;6.772;2022-12-10T02:32:33;-1.50;99.90
5508;DHT22;2776;51.046;6.772;2022-12-10T02:35:05;-1.50;99.90
5508;DHT22;2776;51.046;6.772;2022-12-10T02:37:35;-1.50;99.90
5508;DHT22;2776;51.046;6.772;2022-12-10T02:40:06;-1.40;99.90
5508;DHT22;2776;51.046;6.772;2022-12-10T02:42:38;-1.30;99.90
5508;DHT22;2776;51.046;6.772;2022-12-10T02:45:08;-1.30;99.90
5508;DHT22;2776;51.046;6.772;2022-12-10T02:47:36;-1.20;99.90
5508;DHT22;2776;51.046;6.772;2022-12-10T02:50:06;-1.10;99.90
5508;DHT22;2776;51.046;6.772;2022-12-10T02:52:34;-1.00;99.90
5508;DHT22;2776;51.046;6.772;2022-12-10T02:55:00;-0.90;99.90
5508;DHT22;2776;51.046;6.772;2022-12-10T02:57:32;-0.80;99.90
5508;DHT22;2776;51.046;6.772;2022-12-10T03:00:10;-0.80;99.90
5508;DHT22;2776;51.046;6.772;2022-12-10T03:02:49;-0.60;99.90
5508;DHT22;2776;51.046;6.772;2022-12-10T03:05:23;-0.50;99.90
5508;DHT22;2776;51.046;6.772;2022-12-10T03:07:55;-0.40;99.90
5508;DHT22;2776;51.046;6.772;2022-12-10T03:10:27;-0.40;99.90
5508;DHT22;2776;51.046;6.772;2022-12-10T03:12:59;-0.20;99.90
5508;DHT22;2776;51.046;6.772;2022-12-10T03:15:30;-0.10;99.90
5508;DHT22;2776;51.046;6.772;2022-12-10T03:18:00;0.00;99.90
5508;DHT22;2776;51.046;6.772;2022-12-10T03:20:30;0.00;99.90
5508;DHT22;2776;51.046;6.772;2022-12-10T03:22:58;0.10;99.90
5508;DHT22;2776;51.046;6.772;2022-12-10T03:25:27;0.10;99.90
5508;DHT22;2776;51.046;6.772;2022-12-10T03:27:56;0.10;99.90
5508;DHT22;2776;51.046;6.772;2022-12-10T03:30:24;0.20;99.90
5508;DHT22;2776;51.046;6.772;2022-12-10T03:32:53;0.20;99.90
5508;DHT22;2776;51.046;6.772;2022-12-10T03:35:22;0.20;99.90
5508;DHT22;2776;51.046;6.772;2022-12-10T03:37:50;0.20;99.90
5508;DHT22;2776;51.046;6.772;2022-12-10T03:40:21;0.20;99.90
5508;DHT22;2776;51.046;6.772;2022-12-10T03:42:48;0.30;99.90
5508;DHT22;2776;51.046;6.772;2022-12-10T03:45:15;0.40;99.90
5508;DHT22;2776;51.046;6.772;2022-12-10T03:47:42;0.40;99.90
5508;DHT22;2776;51.046;6.772;2022-12-10T03:50:10;0.40;99.90
5508;DHT22;2776;51.046;6.772;2022-12-10T03:52:37;0.50;99.90
5508;DHT22;2776;51.046;6.772;2022-12-10T03:55:05;0.50;99.90
5508;DHT22;2776;51.046;6.772;2022-12-10T03:57:32;0.50;99.90
5508;DHT22;2776;51.046;6.772;2022-12-10T03:59:59;0.60;99.90
5508;DHT22;2776;51.046;6.772;2022-12-10T04:02:26;0.60;99.90
5508;DHT22;2776;51.046;6.772;2022-12-10T04:04:53;0.60;99.90
5508;DHT22;2776;51.046;6.772;2022-12-10T04:07:21;0.60;99.90
5508;DHT22;2776;51.046;6.772;2022-12-10T04:09:48;0.70;99.90
5508;DHT22;2776;51.046;6.772;2022-12-10T04:12:14;0.70;99.90
5508;DHT22;2776;51.046;6.772;2022-12-10T04:14:41;0.80;99.90
5508;DHT22;2776;51.046;6.772;2022-12-10T04:17:25;0.80;99.90
5508;DHT22;2776;51.046;6.772;2022-12-10T04:19:52;0.90;99.90
5508;DHT22;2776;51.046;6.772;2022-12-10T04:22:20;0.90;99.90
5508;DHT22;2776;51.046;6.772;2022-12-10T04:25:05;0.90;99.90
5508;DHT22;2776;51.046;6.772;2022-12-10T04:27:54;0.90;99.90
5508;DHT22;2776;51.046;6.772;2022-12-10T04:30:21;0.90;99.90
5508;DHT22;2776;51.046;6.772;2022-12-10T04:32:48;0.90;99.90
5508;DHT22;2776;51.046;6.772;2022-12-10T04:35:15;0.90;99.90
5508;DHT22;2776;51.046;6.772;2022-12-10T04:37:43;0.90;99.90
5508;DHT22;2776;51.046;6.772;2022-12-10T04:40:10;0.90;99.90
5508;DHT22;2776;51.046;6.772;2022-12-10T04:42:37;0.90;99.90
5508;DHT22;2776;51.046;6.772;2022-12-10T04:45:05;0.90;99.90
5508;DHT22;2776;51.046;6.772;2022-12-10T04:47:32;1.00;99.90
5508;DHT22;2776;51.046;6.772;2022-12-10T04:49:58;0.90;99.90
5508;DHT22;2776;51.046;6.772;2022-12-10T04:52:25;0.90;99.90
5508;DHT22;2776;51.046;6.772;2022-12-10T04:54:53;0.90;99.90
5508;DHT22;2776;51.046;6.772;2022-12-10T04:57:20;0.80;99.90
5508;DHT22;2776;51.046;6.772;2022-12-10T04:59:47;0.80;99.90
5508;DHT22;2776;51.046;6.772;2022-12-10T05:02:13;0.90;99.90
5508;DHT22;2776;51.046;6.772;2022-12-10T05:04:40;0.90;99.90
5508;DHT22;2776;51.046;6.772;2022-12-10T05:07:07;0.90;99.90
5508;DHT22;2776;51.046;6.772;2022-12-10T05:09:34;0.80;99.90
5508;DHT22;2776;51.046;6.772;2022-12-10T05:12:02;0.90;99.90
5508;DHT22;2776;51.046;6.772;2022-12-10T05:14:28;0.90;99.90
5508;DHT22;2776;51.046;6.772;2022-12-10T05:16:55;0.90;99.90
5508;DHT22;2776;51.046;6.772;2022-12-10T05:19:22;0.90;99.90
5508;DHT22;2776;51.046;6.772;2022-12-10T05:21:49;0.90;99.90
5508;DHT22;2776;51.046;6.772;2022-12-10T05:24:34;0.90;99.90
5508;DHT22;2776;51.046;6.772;2022-12-10T05:27:03;0.90;99.90
5508;DHT22;2776;51.046;6.772;2022-12-10T05:29:29;0.80;99.90
5508;DHT22;2776;51.046;6.772;2022-12-10T05:31:56;0.90;99.90
5508;DHT22;2776;51.046;6.772;2022-12-10T05:34:23;0.90;99.90
5508;DHT22;2776;51.046;6.772;2022-12-10T05:36:50;0.90;99.90
5508;DHT22;2776;51.046;6.772;2022-12-10T05:39:16;0.90;99.90
5508;DHT22;2776;51.046;6.772;2022-12-10T05:41:43;1.00;99.90
5508;DHT22;2776;51.046;6.772;2022-12-10T05:44:12;0.90;99.90
5508;DHT22;2776;51.046;6.772;2022-12-10T05:46:39;0.80;99.90
5508;DHT22;2776;51.046;6.772;2022-12-10T05:49:06;0.80;99.90
5508;DHT22;2776;51.046;6.772;2022-12-10T05:51:34;0.80;99.90
5508;DHT22;2776;51.046;6.772;2022-12-10T05:54:02;0.80;99.90
5508;DHT22;2776;51.046;6.772;2022-12-10T05:56:30;0.80;99.90
5508;DHT22;2776;51.046;6.772;2022-12-10T05:58:58;0.80;99.90
5508;DHT22;2776;51.046;6.772;2022-12-10T06:01:29;0.80;99.90
5508;DHT22;2776;51.046;6.772;2022-12-10T06:03:57;0.80;99.90
5508;DHT22;2776;51.046;6.772;2022-12-10T06:06:25;0.70;99.90
5508;DHT22;2776;51.046;6.772;2022-12-10T06:08:53;0.70;99.90
5508;DHT22;2776;51.046;6.772;2022-12-10T06:11:20;0.60;99.90
5508;DHT22;2776;51.046;6.772;2022-12-10T06:13:47;0.50;99.90
5508;DHT22;2776;51.046;6.772;2022-12-10T06:16:14;0.50;99.90
5508;DHT22;2776;51.046;6.772;2022-12-10T06:18:42;0.40;99.90
5508;DHT22;2776;51.046;6.772;2022-12-10T06:21:11;0.30;99.90
5508;DHT22;2776;51.046;6.772;2022-12-10T06:23:39;0.30;99.90
5508;DHT22;2776;51.046;6.772;2022-12-10T06:26:07;0.40;99.90
5508;DHT22;2776;51.046;6.772;2022-12-10T06:28:34;0.40;99.90
5508;DHT22;2776;51.046;6.772;2022-12-10T06:31:01;0.30;99.90
5508;DHT22;2776;51.046;6.772;2022-12-10T06:33:28;0.30;99.90
5508;DHT22;2776;51.046;6.772;2022-12-10T06:35:56;0.20;99.90
5508;DHT22;2776;51.046;6.772;2022-12-10T06:38:23;0.20;99.90
5508;DHT22;2776;51.046;6.772;2022-12-10T06:40:50;0.00;99.90
5508;DHT22;2776;51.046;6.772;2022-12-10T06:43:18;0.10;99.90
5508;DHT22;2776;51.046;6.772;2022-12-10T06:45:44;0.10;99.90
5508;DHT22;2776;51.046;6.772;2022-12-10T06:48:11;0.10;99.90
5508;DHT22;2776;51.046;6.772;2022-12-10T06:50:38;0.10;99.90
5508;DHT22;2776;51.046;6.772;2022-12-10T06:53:06;0.10;99.90
5508;DHT22;2776;51.046;6.772;2022-12-10T06:55:33;0.00;99.90
5508;DHT22;2776;51.046;6.772;2022-12-10T06:57:59;-0.10;99.90
5508;DHT22;2776;51.046;6.772;2022-12-10T07:00:26;0.00;99.90
5508;DHT22;2776;51.046;6.772;2022-12-10T07:02:53;0.10;99.90
5508;DHT22;2776;51.046;6.772;2022-12-10T07:05:19;0.10;99.90
5508;DHT22;2776;51.046;6.772;2022-12-10T07:07:46;0.20;99.90
5508;DHT22;2776;51.046;6.772;2022-12-10T07:10:14;0.20;99.90
5508;DHT22;2776;51.046;6.772;2022-12-10T07:12:41;0.20;99.90
5508;DHT22;2776;51.046;6.772;2022-12-10T07:15:08;0.30;99.90
5508;DHT22;2776;51.046;6.772;2022-12-10T07:17:35;0.30;99.90
5508;DHT22;2776;51.046;6.772;2022-12-10T07:20:03;0.20;99.90
5508;DHT22;2776;51.046;6.772;2022-12-10T07:22:29;0.20;99.90
5508;DHT22;2776;51.046;6.772;2022-12-10T07:24:56;0.30;99.90
5508;DHT22;2776;51.046;6.772;2022-12-10T07:27:24;0.20;99.90
5508;DHT22;2776;51.046;6.772;2022-12-10T07:29:51;0.30;99.90
5508;DHT22;2776;51.046;6.772;2022-12-10T07:32:18;0.30;99.90
5508;DHT22;2776;51.046;6.772;2022-12-10T07:34:44;0.40;99.90
5508;DHT22;2776;51.046;6.772;2022-12-10T07:37:11;0.40;99.90
5508;DHT22;2776;51.046;6.772;2022-12-10T07:39:38;0.50;99.90
5508;DHT22;2776;51.046;6.772;2022-12-10T07:42:05;0.50;99.90
5508;DHT22;2776;51.046;6.772;2022-12-10T07:44:33;0.40;99.90
5508;DHT22;2776;51.046;6.772;2022-12-10T07:47:00;0.40;99.90
5508;DHT22;2776;51.046;6.772;2022-12-10T07:49:26;0.30;99.90
5508;DHT22;2776;51.046;6.772;2022-12-10T07:51:55;0.40;99.90
5508;DHT22;2776;51.046;6.772;2022-12-10T07:54:21;0.30;99.90
5508;DHT22;2776;51.046;6.772;2022-12-10T07:56:49;0.40;99.90
5508;DHT22;2776;51.046;6.772;2022-12-10T07:59:15;0.50;99.90
5508;DHT22;2776;51.046;6.772;2022-12-10T08:01:44;0.50;99.90
5508;DHT22;2776;51.046;6.772;2022-12-10T08:04:10;0.50;99.90
5508;DHT22;2776;51.046;6.772;2022-12-10T08:06:37;0.60;99.90
5508;DHT22;2776;51.046;6.772;2022-12-10T08:09:04;0.60;99.90
5508;DHT22;2776;51.046;6.772;2022-12-10T08:11:31;0.70;99.90
5508;DHT22;2776;51.046;6.772;2022-12-10T08:13:58;0.60;99.90
5508;DHT22;2776;51.046;6.772;2022-12-10T08:16:26;0.70;99.90
5508;DHT22;2776;51.046;6.772;2022-12-10T08:18:55;0.70;99.90
5508;DHT22;2776;51.046;6.772;2022-12-10T08:21:24;0.70;99.90
5508;DHT22;2776;51.046;6.772;2022-12-10T08:23:51;0.80;99.90
5508;DHT22;2776;51.046;6.772;2022-12-10T08:26:19;0.90;99.90
5508;DHT22;2776;51.046;6.772;2022-12-10T08:28:48;0.80;99.90
5508;DHT22;2776;51.046;6.772;2022-12-10T08:31:16;0.90;99.90
5508;DHT22;2776;51.046;6.772;2022-12-10T08:33:44;0.90;99.90
5508;DHT22;2776;51.046;6.772;2022-12-10T08:36:13;0.90;99.90
5508;DHT22;2776;51.046;6.772;2022-12-10T08:38:41;1.00;99.90
5508;DHT22;2776;51.046;6.772;2022-12-10T08:41:09;1.00;99.90
5508;DHT22;2776;51.046;6.772;2022-12-10T08:43:37;1.00;99.90
5508;DHT22;2776;51.046;6.772;2022-12-10T08:46:04;1.00;99.90
5508;DHT22;2776;51.046;6.772;2022-12-10T08:48:33;1.00;99.90
5508;DHT22;2776;51.046;6.772;2022-12-10T08:51:00;1.00;99.90
5508;DHT22;2776;51.046;6.772;2022-12-10T08:53:28;1.00;99.90
5508;DHT22;2776;51.046;6.772;2022-12-10T08:55:55;1.00;99.90
5508;DHT22;2776;51.046;6.772;2022-12-10T08:58:22;1.20;99.90
5508;DHT22;2776;51.046;6.772;2022-12-10T09:00:49;1.10;99.90
5508;DHT22;2776;51.046;6.772;2022-12-10T09:03:16;1.00;99.90
5508;DHT22;2776;51.046;6.772;2022-12-10T09:05:44;1.00;99.90
5508;DHT22;2776;51.046;6.772;2022-12-10T09:08:11;1.00;99.90
5508;DHT22;2776;51.046;6.772;2022-12-10T09:10:40;0.90;99.90
5508;DHT22;2776;51.046;6.772;2022-12-10T09:13:07;0.90;99.90
5508;DHT22;2776;51.046;6.772;2022-12-10T09:15:34;1.00;99.90
5508;DHT22;2776;51.046;6.772;2022-12-10T09:18:01;1.00;99.90
5508;DHT22;2776;51.046;6.772;2022-12-10T09:20:27;1.00;99.90
5508;DHT22;2776;51.046;6.772;2022-12-10T09:22:54;1.10;99.90
5508;DHT22;2776;51.046;6.772;2022-12-10T09:25:21;1.20;99.90
5508;DHT22;2776;51.046;6.772;2022-12-10T09:27:49;1.30;99.90
5508;DHT22;2776;51.046;6.772;2022-12-10T09:30:16;1.30;99.90
5508;DHT22;2776;51.046;6.772;2022-12-10T09:32:43;1.30;99.90
5508;DHT22;2776;51.046;6.772;2022-12-10T09:35:10;1.30;99.90
5508;DHT22;2776;51.046;6.772;2022-12-10T09:37:37;1.30;99.90
5508;DHT22;2776;51.046;6.772;2022-12-10T09:40:04;1.40;99.90
5508;DHT22;2776;51.046;6.772;2022-12-10T09:42:39;1.50;99.90
5508;DHT22;2776;51.046;6.772;2022-12-10T09:45:16;1.40;99.90
5508;DHT22;2776;51.046;6.772;2022-12-10T09:47:52;1.40;99.90
5508;DHT22;2776;51.046;6.772;2022-12-10T09:50:23;1.30;99.90
5508;DHT22;2776;51.046;6.772;2022-12-10T09:52:52;1.50;99.90
5508;DHT22;2776;51.046;6.772;2022-12-10T09:55:25;1.40;99.90
5508;DHT22;2776;51.046;6.772;2022-12-10T09:57:53;1.50;99.90
5508;DHT22;2776;51.046;6.772;2022-12-10T10:00:25;1.60;99.90
5508;DHT22;2776;51.046;6.772;2022-12-10T10:02:56;1.70;99.90
5508;DHT22;2776;51.046;6.772;2022-12-10T10:05:26;1.90;99.90
5508;DHT22;2776;51.046;6.772;2022-12-10T10:07:55;2.00;99.90
5508;DHT22;2776;51.046;6.772;2022-12-10T10:10:26;2.00;99.90
5508;DHT22;2776;51.046;6.772;2022-12-10T10:12:55;2.00;99.90
5508;DHT22;2776;51.046;6.772;2022-12-10T10:15:28;2.10;99.90
5508;DHT22;2776;51.046;6.772;2022-12-10T10:17:57;2.20;99.90
5508;DHT22;2776;51.046;6.772;2022-12-10T10:20:24;2.20;99.90
5508;DHT22;2776;51.046;6.772;2022-12-10T10:22:52;2.10;99.90
5508;DHT22;2776;51.046;6.772;2022-12-10T10:25:20;2.30;99.90
5508;DHT22;2776;51.046;6.772;2022-12-10T10:27:46;2.30;99.90
5508;DHT22;2776;51.046;6.772;2022-12-10T10:30:15;2.40;99.90
5508;DHT22;2776;51.046;6.772;2022-12-10T10:32:49;2.30;99.90
5508;DHT22;2776;51.046;6.772;2022-12-10T10:35:29;2.30;99.90
5508;DHT22;2776;51.046;6.772;2022-12-10T10:38:00;2.20;99.90
5508;DHT22;2776;51.046;6.772;2022-12-10T10:40:30;2.20;99.90
5508;DHT22;2776;51.046;6.772;2022-12-10T10:42:58;2.10;99.90
5508;DHT22;2776;51.046;6.772;2022-12-10T10:45:33;2.10;99.90
5508;DHT22;2776;51.046;6.772;2022-12-10T10:48:08;2.10;99.90
5508;DHT22;2776;51.046;6.772;2022-12-10T10:50:40;2.20;99.90
5508;DHT22;2776;51.046;6.772;2022-12-10T10:53:26;2.20;99.90
5508;DHT22;2776;51.046;6.772;2022-12-10T10:55:54;2.30;99.90
5508;DHT22;2776;51.046;6.772;2022-12-10T10:58:23;2.30;99.90
5508;DHT22;2776;51.046;6.772;2022-12-10T11:00:59;2.30;99.90
5508;DHT22;2776;51.046;6.772;2022-12-10T11:03:29;2.20;99.90
5508;DHT22;2776;51.046;6.772;2022-12-10T11:05:58;2.20;99.90
5508;DHT22;2776;51.046;6.772;2022-12-10T11:08:27;2.30;99.90
5508;DHT22;2776;51.046;6.772;2022-12-10T11:10:59;2.40;99.90
5508;DHT22;2776;51.046;6.772;2022-12-10T11:13:29;2.40;99.90
5508;DHT22;2776;51.046;6.772;2022-12-10T11:15:59;2.50;99.90
5508;DHT22;2776;51.046;6.772;2022-12-10T11:18:31;2.40;99.90
5508;DHT22;2776;51.046;6.772;2022-12-10T11:21:01;2.40;99.90
5508;DHT22;2776;51.046;6.772;2022-12-10T11:23:30;2.50;99.90
5508;DHT22;2776;51.046;6.772;2022-12-10T11:26:03;2.30;99.90
5508;DHT22;2776;51.046;6.772;2022-12-10T11:28:40;2.40;99.90
5508;DHT22;2776;51.046;6.772;2022-12-10T11:31:25;2.50;99.90
5508;DHT22;2776;51.046;6.772;2022-12-10T11:34:01;2.60;99.90
5508;DHT22;2776;51.046;6.772;2022-12-10T11:36:36;2.70;99.90
5508;DHT22;2776;51.046;6.772;2022-12-10T11:39:16;2.50;99.90
5508;DHT22;2776;51.046;6.772;2022-12-10T11:41:49;2.40;99.90
5508;DHT22;2776;51.046;6.772;2022-12-10T11:44:25;2.30;99.90
5508;DHT22;2776;51.046;6.772;2022-12-10T11:47:06;2.30;99.90
5508;DHT22;2776;51.046;6.772;2022-12-10T11:49:44;2.40;99.90
5508;DHT22;2776;51.046;6.772;2022-12-10T11:52:16;2.50;99.90
5508;DHT22;2776;51.046;6.772;2022-12-10T11:54:56;2.50;99.90
5508;DHT22;2776;51.046;6.772;2022-12-10T11:57:30;2.60;99.90
5508;DHT22;2776;51.046;6.772;2022-12-10T12:00:03;2.40;99.90
5508;DHT22;2776;51.046;6.772;2022-12-10T12:02:46;2.30;99.90
5508;DHT22;2776;51.046;6.772;2022-12-10T12:05:27;2.30;99.90
5508;DHT22;2776;51.046;6.772;2022-12-10T12:08:06;2.30;99.90
5508;DHT22;2776;51.046;6.772;2022-12-10T12:11:05;2.40;99.90
5508;DHT22;2776;51.046;6.772;2022-12-10T12:13:40;2.50;99.90
5508;DHT22;2776;51.046;6.772;2022-12-10T12:16:11;2.60;99.90
5508;DHT22;2776;51.046;6.772;2022-12-10T12:18:43;2.70;99.90
5508;DHT22;2776;51.046;6.772;2022-12-10T12:21:15;2.50;99.90
5508;DHT22;2776;51.046;6.772;2022-12-10T12:23:48;2.70;99.90
5508;DHT22;2776;51.046;6.772;2022-12-10T12:26:20;2.80;99.90
5508;DHT22;2776;51.046;6.772;2022-12-10T12:28:53;2.90;99.90
5508;DHT22;2776;51.046;6.772;2022-12-10T12:31:25;2.70;99.90
5508;DHT22;2776;51.046;6.772;2022-12-10T12:34:01;2.70;99.90
5508;DHT22;2776;51.046;6.772;2022-12-10T12:36:33;2.80;99.90
5508;DHT22;2776;51.046;6.772;2022-12-10T12:39:05;3.00;99.90
5508;DHT22;2776;51.046;6.772;2022-12-10T12:41:38;3.00;99.90
5508;DHT22;2776;51.046;6.772;2022-12-10T12:44:13;3.00;99.90
5508;DHT22;2776;51.046;6.772;2022-12-10T12:46:42;3.00;99.90
5508;DHT22;2776;51.046;6.772;2022-12-10T12:49:14;2.90;99.90
5508;DHT22;2776;51.046;6.772;2022-12-10T12:51:48;2.90;99.90
5508;DHT22;2776;51.046;6.772;2022-12-10T12:54:16;2.60;99.90
5508;DHT22;2776;51.046;6.772;2022-12-10T12:56:55;2.60;99.90
5508;DHT22;2776;51.046;6.772;2022-12-10T12:59:39;2.70;99.90
5508;DHT22;2776;51.046;6.772;2022-12-10T13:02:22;2.80;99.90
5508;DHT22;2776;51.046;6.772;2022-12-10T13:04:52;2.90;99.90
5508;DHT22;2776;51.046;6.772;2022-12-10T13:07:34;3.00;99.90
5508;DHT22;2776;51.046;6.772;2022-12-10T13:10:17;3.00;99.90
5508;DHT22;2776;51.046;6.772;2022-12-10T13:12:50;3.00;99.90
5508;DHT22;2776;51.046;6.772;2022-12-10T13:15:20;2.90;99.90
5508;DHT22;2776;51.046;6.772;2022-12-10T13:18:16;2.90;99.90
5508;DHT22;2776;51.046;6.772;2022-12-10T13:20:47;2.80;99.90
5508;DHT22;2776;51.046;6.772;2022-12-10T13:23:47;2.60;99.90
5508;DHT22;2776;51.046;6.772;2022-12-10T13:26:24;2.50;99.90
5508;DHT22;2776;51.046;6.772;2022-12-10T13:28:53;2.50;99.90
5508;DHT22;2776;51.046;6.772;2022-12-10T13:31:36;2.60;99.90
5508;DHT22;2776;51.046;6.772;2022-12-10T13:34:21;2.40;99.90
5508;DHT22;2776;51.046;6.772;2022-12-10T13:40:14;2.60;99.90
5508;DHT22;2776;51.046;6.772;2022-12-10T13:42:44;2.70;99.90
5508;DHT22;2776;51.046;6.772;2022-12-10T13:45:35;2.70;99.90
5508;DHT22;2776;51.046;6.772;2022-12-10T13:48:30;2.80;99.90
5508;DHT22;2776;51.046;6.772;2022-12-10T13:57:30;2.90;99.90
5508;DHT22;2776;51.046;6.772;2022-12-10T14:00:06;2.90;99.90
5508;DHT22;2776;51.046;6.772;2022-12-10T14:02:45;2.90;99.90
5508;DHT22;2776;51.046;6.772;2022-12-10T14:05:23;2.80;99.90
5508;DHT22;2776;51.046;6.772;2022-12-10T14:07:56;2.90;99.90
5508;DHT22;2776;51.046;6.772;2022-12-10T14:10:31;2.90;99.90
5508;DHT22;2776;51.046;6.772;2022-12-10T14:13:00;3.00;99.90
5508;DHT22;2776;51.046;6.772;2022-12-10T14:15:28;2.80;99.90
5508;DHT22;2776;51.046;6.772;2022-12-10T14:18:00;2.60;99.90
5508;DHT22;2776;51.046;6.772;2022-12-10T14:20:30;2.60;99.90
5508;DHT22;2776;51.046;6.772;2022-12-10T14:23:02;2.60;99.90
5508;DHT22;2776;51.046;6.772;2022-12-10T14:25:45;2.60;99.90
5508;DHT22;2776;51.046;6.772;2022-12-10T14:28:16;2.30;99.90
5508;DHT22;2776;51.046;6.772;2022-12-10T14:30:44;2.40;99.90
5508;DHT22;2776;51.046;6.772;2022-12-10T14:33:15;2.50;99.90
5508;DHT22;2776;51.046;6.772;2022-12-10T14:35:43;2.60;99.90
5508;DHT22;2776;51.046;6.772;2022-12-10T14:38:17;2.50;99.90
5508;DHT22;2776;51.046;6.772;2022-12-10T14:40:46;2.50;99.90
5508;DHT22;2776;51.046;6.772;2022-12-10T14:43:18;2.50;99.90
5508;DHT22;2776;51.046;6.772;2022-12-10T14:45:46;2.50;99.90
5508;DHT22;2776;51.046;6.772;2022-12-10T14:48:16;2.40;99.90
5508;DHT22;2776;51.046;6.772;2022-12-10T14:50:44;2.50;99.90
5508;DHT22;2776;51.046;6.772;2022-12-10T14:53:14;2.40;99.90
5508;DHT22;2776;51.046;6.772;2022-12-10T14:55:42;2.50;99.90
5508;DHT22;2776;51.046;6.772;2022-12-10T14:58:13;2.50;99.90
5508;DHT22;2776;51.046;6.772;2022-12-10T15:00:44;2.50;99.90
5508;DHT22;2776;51.046;6.772;2022-12-10T15:03:19;2.50;99.90
5508;DHT22;2776;51.046;6.772;2022-12-10T15:05:54;2.40;99.90
5508;DHT22;2776;51.046;6.772;2022-12-10T15:08:21;2.50;99.90
5508;DHT22;2776;51.046;6.772;2022-12-10T15:10:54;2.50;99.90
5508;DHT22;2776;51.046;6.772;2022-12-10T15:13:23;2.40;99.90
5508;DHT22;2776;51.046;6.772;2022-12-10T15:15:52;2.40;99.90
5508;DHT22;2776;51.046;6.772;2022-12-10T15:18:25;2.30;99.90
5508;DHT22;2776;51.046;6.772;2022-12-10T15:20:54;2.30;99.90
5508;DHT22;2776;51.046;6.772;2022-12-10T15:23:32;2.30;99.90
5508;DHT22;2776;51.046;6.772;2022-12-10T15:26:03;2.40;99.90
5508;DHT22;2776;51.046;6.772;2022-12-10T15:28:32;2.50;99.90
5508;DHT22;2776;51.046;6.772;2022-12-10T15:31:12;2.50;99.90
5508;DHT22;2776;51.046;6.772;2022-12-10T15:33:42;2.50;99.90
5508;DHT22;2776;51.046;6.772;2022-12-10T15:36:16;2.50;99.90
5508;DHT22;2776;51.046;6.772;2022-12-10T15:38:44;2.40;99.90
5508;DHT22;2776;51.046;6.772;2022-12-10T15:41:23;2.40;99.90
5508;DHT22;2776;51.046;6.772;2022-12-10T15:43:55;2.40;99.90
5508;DHT22;2776;51.046;6.772;2022-12-10T15:46:24;2.30;99.90
5508;DHT22;2776;51.046;6.772;2022-12-10T15:48:51;2.30;99.90
5508;DHT22;2776;51.046;6.772;2022-12-10T15:51:18;2.30;99.90
5508;DHT22;2776;51.046;6.772;2022-12-10T15:53:45;2.10;99.90
5508;DHT22;2776;51.046;6.772;2022-12-10T15:56:12;2.10;99.90
5508;DHT22;2776;51.046;6.772;2022-12-10T15:58:39;2.10;99.90
5508;DHT22;2776;51.046;6.772;2022-12-10T16:01:07;2.10;99.90
5508;DHT22;2776;51.046;6.772;2022-12-10T16:03:36;2.20;99.90
5508;DHT22;2776;51.046;6.772;2022-12-10T16:06:06;2.20;99.90
5508;DHT22;2776;51.046;6.772;2022-12-10T16:08:32;2.30;99.90
5508;DHT22;2776;51.046;6.772;2022-12-10T16:11:02;2.30;99.90
5508;DHT22;2776;51.046;6.772;2022-12-10T16:13:32;2.40;99.90
5508;DHT22;2776;51.046;6.772;2022-12-10T16:16:03;2.40;99.90
5508;DHT22;2776;51.046;6.772;2022-12-10T16:18:31;2.30;99.90
5508;DHT22;2776;51.046;6.772;2022-12-10T16:20:59;2.30;99.90
5508;DHT22;2776;51.046;6.772;2022-12-10T16:23:26;2.30;99.90
5508;DHT22;2776;51.046;6.772;2022-12-10T16:25:53;2.20;99.90
5508;DHT22;2776;51.046;6.772;2022-12-10T16:28:20;2.10;99.90
5508;DHT22;2776;51.046;6.772;2022-12-10T16:30:48;2.10;99.90
5508;DHT22;2776;51.046;6.772;2022-12-10T16:33:16;2.00;99.90
5508;DHT22;2776;51.046;6.772;2022-12-10T16:35:44;1.90;99.90
5508;DHT22;2776;51.046;6.772;2022-12-10T16:38:12;1.70;99.90
5508;DHT22;2776;51.046;6.772;2022-12-10T16:40:41;1.70;99.90
5508;DHT22;2776;51.046;6.772;2022-12-10T16:43:12;1.70;99.90
5508;DHT22;2776;51.046;6.772;2022-12-10T16:45:40;1.60;99.90